F/V Fille Du Suet — FGSG — position and weather

sailwx.info

Track history (hours):
 
Tides and Currents Weather Stations Pressure Air Temp Water Temp Dewpoint Dewpoint Depression Visibility Wind Speed Wind Dir Waves Ship Positions

F/V Fille Du Suet

Last reported at 2017-Nov-27 14:35 UTC. Time now 2017-Dec-18 16:45 UTC.
Position N 46°37' W 002°19'.
Warning: this ship's position is 21 days out of date.

Length 22 m; draft 3.8 m.

Type: Fishing. MMSI: 227574000.

Date/timePositionNaut miles runAvg speedWind from/ knotsBaromVisibWave heightAir tempDewpointWater temp
2017-Nov-27 14:35N 46°37' W 002°19'3 9.7
2017-Nov-27 14:18N 46°36' W 002°15'3 9.7
2017-Nov-27 13:57N 46°34' W 002°10'4 9.8
2017-Nov-27 13:30N 46°32' W 002°05'5 9.7
2017-Nov-27 13:01N 46°31' W 001°58'5 9.8
2017-Nov-27 12:30N 46°29' W 001°51'3 5.8
2017-Nov-27 12:00N 46°30' W 001°48'0 0.4
2017-Nov-27 11:30N 46°30' W 001°47'0 0.0
2017-Nov-27 11:01N 46°30' W 001°47'0 0.0
2017-Nov-27 10:31N 46°30' W 001°47'0 0.0
2017-Nov-27 10:01N 46°30' W 001°47'0 0.0
2017-Nov-27 09:30N 46°30' W 001°47'0 0.3
2017-Nov-27 08:59N 46°30' W 001°47'0 0.1
2017-Nov-27 08:29N 46°30' W 001°48'0 0.0
2017-Nov-27 07:59N 46°30' W 001°48'0 0.0
2017-Nov-27 07:29N 46°30' W 001°48'0 0.0
2017-Nov-27 06:59N 46°30' W 001°48'0 0.0
2017-Nov-27 06:29N 46°30' W 001°48'0 0.0
2017-Nov-27 05:59N 46°30' W 001°48'0 0.0
2017-Nov-27 05:26N 46°30' W 001°48'0 0.0
2017-Nov-27 04:59N 46°30' W 001°48'0 0.0
2017-Nov-27 04:29N 46°30' W 001°48'0 0.0
2017-Nov-27 03:59N 46°30' W 001°48'0 0.0
2017-Nov-27 03:29N 46°30' W 001°48'0 0.0
2017-Nov-27 02:59N 46°30' W 001°48'0 0.0
2017-Nov-27 02:29N 46°30' W 001°48'0 0.0
2017-Nov-27 01:59N 46°30' W 001°48'0 0.0
2017-Nov-27 01:29N 46°30' W 001°48'0 0.0
2017-Nov-27 00:59N 46°30' W 001°48'0 0.0
2017-Nov-27 00:29N 46°30' W 001°48'0 0.0
2017-Nov-26 23:59N 46°30' W 001°48'0 0.0
2017-Nov-26 23:29N 46°30' W 001°48'0 0.0
2017-Nov-26 22:59N 46°30' W 001°48'0 0.0
2017-Nov-26 22:29N 46°30' W 001°48'0 0.0
2017-Nov-26 21:59N 46°30' W 001°48'0 0.0
2017-Nov-26 21:29N 46°30' W 001°48'0 0.0
2017-Nov-26 20:59N 46°30' W 001°48'0 0.0
2017-Nov-26 20:29N 46°30' W 001°48'0 0.0
2017-Nov-26 19:59N 46°30' W 001°48'0 0.0
2017-Nov-26 19:29N 46°30' W 001°48'0 0.4
2017-Nov-26 18:58N 46°30' W 001°47'0 0.0
2017-Nov-26 18:29N 46°30' W 001°47'2 4.2
2017-Nov-26 18:00N 46°28' W 001°49'510.2
2017-Nov-26 17:30N 46°29' W 001°57'510.4
2017-Nov-26 17:00N 46°30' W 002°04'510.3
2017-Nov-26 16:30N 46°32' W 002°11'  
2017-Nov-20 00:21N 46°44' W 002°21'0 0.0
2017-Nov-20 00:00N 46°44' W 002°21'0 0.0
2017-Nov-19 22:39N 46°44' W 002°21'0 0.0
2017-Nov-19 22:30N 46°44' W 002°21'0 0.0
2017-Nov-19 22:00N 46°44' W 002°21'0 0.0
2017-Nov-19 08:45N 46°44' W 002°21'0 0.0
2017-Nov-19 05:51N 46°44' W 002°21'0 0.0
2017-Nov-19 04:18N 46°44' W 002°21'0 0.0
2017-Nov-19 01:48N 46°44' W 002°21'0 0.0
2017-Nov-19 00:30N 46°44' W 002°21'0 0.0
2017-Nov-18 23:57N 46°44' W 002°21'0 0.0
2017-Nov-18 22:51N 46°44' W 002°21'0 0.0
2017-Nov-18 22:24N 46°44' W 002°21'0 0.0
2017-Nov-18 22:00N 46°44' W 002°21'0 0.0
2017-Nov-18 21:00N 46°44' W 002°21'0 0.0
2017-Nov-18 20:30N 46°44' W 002°21'0 0.0
2017-Nov-18 19:54N 46°44' W 002°21'0 0.0
2017-Nov-18 19:30N 46°44' W 002°21'0 0.0
2017-Nov-18 17:03N 46°44' W 002°21'0 0.0
2017-Nov-18 17:00N 46°44' W 002°21'0 0.0
2017-Nov-18 16:30N 46°44' W 002°21'0 0.0
2017-Nov-18 16:00N 46°44' W 002°21'0 0.0
2017-Nov-18 15:24N 46°44' W 002°21'0 0.0
2017-Nov-18 14:57N 46°44' W 002°21'0 0.0
2017-Nov-18 14:30N 46°44' W 002°21'0 0.0
2017-Nov-18 14:00N 46°44' W 002°21'0 0.0
2017-Nov-18 13:30N 46°44' W 002°21'0 0.0
2017-Nov-18 12:57N 46°44' W 002°21'0 0.0
2017-Nov-18 11:36N 46°44' W 002°21'0 0.0
2017-Nov-18 11:21N 46°44' W 002°21'0 0.0
2017-Nov-18 10:48N 46°44' W 002°21'0 0.0
2017-Nov-18 10:30N 46°44' W 002°21'0 0.0
2017-Nov-18 09:57N 46°44' W 002°21'  
Track history (hours):
 
Tides and Currents Weather Stations Pressure Air Temp Water Temp Dewpoint Dewpoint Depression Visibility Wind Speed Wind Dir Waves Ship Positions

F/V Fille Du Suet

Last reported at 2017-Nov-27 14:35 UTC. Time now 2017-Dec-18 16:45 UTC.
Position N 46°37' W 002°19'.
Warning: this ship's position is 21 days out of date.

Length 22 m; draft 3.8 m.

Type: Fishing. MMSI: 227574000.

Date/timePositionNaut miles runAvg speedWind from/ knotsBaromVisibWave heightAir tempDewpointWater temp
2017-Nov-27 14:35N 46°37' W 002°19'3 9.7
2017-Nov-27 14:18N 46°36' W 002°15'3 9.7
2017-Nov-27 13:57N 46°34' W 002°10'4 9.8
2017-Nov-27 13:30N 46°32' W 002°05'5 9.7
2017-Nov-27 13:01N 46°31' W 001°58'5 9.8
2017-Nov-27 12:30N 46°29' W 001°51'3 5.8
2017-Nov-27 12:00N 46°30' W 001°48'0 0.4
2017-Nov-27 11:30N 46°30' W 001°47'0 0.0
2017-Nov-27 11:01N 46°30' W 001°47'0 0.0
2017-Nov-27 10:31N 46°30' W 001°47'0 0.0
2017-Nov-27 10:01N 46°30' W 001°47'0 0.0
2017-Nov-27 09:30N 46°30' W 001°47'0 0.3
2017-Nov-27 08:59N 46°30' W 001°47'0 0.1
2017-Nov-27 08:29N 46°30' W 001°48'0 0.0
2017-Nov-27 07:59N 46°30' W 001°48'0 0.0
2017-Nov-27 07:29N 46°30' W 001°48'0 0.0
2017-Nov-27 06:59N 46°30' W 001°48'0 0.0
2017-Nov-27 06:29N 46°30' W 001°48'0 0.0
2017-Nov-27 05:59N 46°30' W 001°48'0 0.0
2017-Nov-27 05:26N 46°30' W 001°48'0 0.0
2017-Nov-27 04:59N 46°30' W 001°48'0 0.0
2017-Nov-27 04:29N 46°30' W 001°48'0 0.0
2017-Nov-27 03:59N 46°30' W 001°48'0 0.0
2017-Nov-27 03:29N 46°30' W 001°48'0 0.0
2017-Nov-27 02:59N 46°30' W 001°48'0 0.0
2017-Nov-27 02:29N 46°30' W 001°48'0 0.0
2017-Nov-27 01:59N 46°30' W 001°48'0 0.0
2017-Nov-27 01:29N 46°30' W 001°48'0 0.0
2017-Nov-27 00:59N 46°30' W 001°48'0 0.0
2017-Nov-27 00:29N 46°30' W 001°48'0 0.0
2017-Nov-26 23:59N 46°30' W 001°48'0 0.0
2017-Nov-26 23:29N 46°30' W 001°48'0 0.0
2017-Nov-26 22:59N 46°30' W 001°48'0 0.0
2017-Nov-26 22:29N 46°30' W 001°48'0 0.0
2017-Nov-26 21:59N 46°30' W 001°48'0 0.0
2017-Nov-26 21:29N 46°30' W 001°48'0 0.0
2017-Nov-26 20:59N 46°30' W 001°48'0 0.0
2017-Nov-26 20:29N 46°30' W 001°48'0 0.0
2017-Nov-26 19:59N 46°30' W 001°48'0 0.0
2017-Nov-26 19:29N 46°30' W 001°48'0 0.4
2017-Nov-26 18:58N 46°30' W 001°47'0 0.0
2017-Nov-26 18:29N 46°30' W 001°47'2 4.2
2017-Nov-26 18:00N 46°28' W 001°49'510.2
2017-Nov-26 17:30N 46°29' W 001°57'510.4
2017-Nov-26 17:00N 46°30' W 002°04'510.3
2017-Nov-26 16:30N 46°32' W 002°11'  
2017-Nov-20 00:21N 46°44' W 002°21'0 0.0
2017-Nov-20 00:00N 46°44' W 002°21'0 0.0
2017-Nov-19 22:39N 46°44' W 002°21'0 0.0
2017-Nov-19 22:30N 46°44' W 002°21'0 0.0
2017-Nov-19 22:00N 46°44' W 002°21'0 0.0
2017-Nov-19 08:45N 46°44' W 002°21'0 0.0
2017-Nov-19 05:51N 46°44' W 002°21'0 0.0
2017-Nov-19 04:18N 46°44' W 002°21'0 0.0
2017-Nov-19 01:48N 46°44' W 002°21'0 0.0
2017-Nov-19 00:30N 46°44' W 002°21'0 0.0
2017-Nov-18 23:57N 46°44' W 002°21'0 0.0
2017-Nov-18 22:51N 46°44' W 002°21'0 0.0
2017-Nov-18 22:24N 46°44' W 002°21'0 0.0
2017-Nov-18 22:00N 46°44' W 002°21'0 0.0
2017-Nov-18 21:00N 46°44' W 002°21'0 0.0
2017-Nov-18 20:30N 46°44' W 002°21'0 0.0
2017-Nov-18 19:54N 46°44' W 002°21'0 0.0
2017-Nov-18 19:30N 46°44' W 002°21'0 0.0
2017-Nov-18 17:03N 46°44' W 002°21'0 0.0
2017-Nov-18 17:00N 46°44' W 002°21'0 0.0
2017-Nov-18 16:30N 46°44' W 002°21'0 0.0
2017-Nov-18 16:00N 46°44' W 002°21'0 0.0
2017-Nov-18 15:24N 46°44' W 002°21'0 0.0
2017-Nov-18 14:57N 46°44' W 002°21'0 0.0
2017-Nov-18 14:30N 46°44' W 002°21'0 0.0
2017-Nov-18 14:00N 46°44' W 002°21'0 0.0
2017-Nov-18 13:30N 46°44' W 002°21'0 0.0
2017-Nov-18 12:57N 46°44' W 002°21'0 0.0
2017-Nov-18 11:36N 46°44' W 002°21'0 0.0
2017-Nov-18 11:21N 46°44' W 002°21'0 0.0
2017-Nov-18 10:48N 46°44' W 002°21'0 0.0
2017-Nov-18 10:30N 46°44' W 002°21'0 0.0
2017-Nov-18 09:57N 46°44' W 002°21'  

Dump ship's entire track history